Pottersville, Missouri
Current Conditions -  °F | °C
As of 9:53 AM on Thursday 27 Nov 2014 (Local Time) from KUNO Reporting Station
Overcast Overcast  
Wind Chill: -2°   Ceiling: 1900
Heat Index:   Visibility: 10mi
Dew Point: -4°   Wind: 7mph
Humidity: 70%   Direction: 350°N
Pressure: 30.49"   Gusts: NA
Location:  36.7°N, 92.03°W
Report Text: KUNO 271553Z AUTO 35006KT 10SM OVC019 01/M04 A3049 RMK AO2 SLP334 T00111039
Loading
Personal Weather Stations






























Interactive Weather Map New forecast layout! Learn more

10-Day Weather Forecast

Advertisements
Track Severe Weather on mobile